Latest Weather Observations for Nhill Aerodrome

IDV60801

Issued at 11:32 pm EDT Friday 15 November 2019 (issued every 10 minutes, with the page automatically refreshed every 10 minutes)

About weather observations | Map of weather stations | Latest weather observations for VIC | Other Formats
Station Details ID: 078015 Name: NHILL AERODROME Lat: -36.31 Lon: 141.65 Height: 138.9 m
Data from the previous 72 hours. | See also: Recent months at Nhill Aerodrome
Date/Time
EDT
Temp
°C
App
Temp
°C
Dew
Point
°C
Rel
Hum
%
Delta-T
°C
Wind Press
QNH
hPa
Press
MSL
hPa
Rain since
9am
mm
Dir  Spd
km/h
Gust
km/h
Spd
kts
Gust
kts
15/11:30pm 8.9 5.4 3.7 70 2.3 WSW 11 13 6 7 1019.1 1018.8 0.0
15/11:00pm 9.9 6.2 4.3 68 2.5 WSW 13 17 7 9 1018.9 1018.6 0.0
15/10:30pm 10.9 6.1 4.4 64 2.9 SW 19 24 10 13 1018.7 1018.4 0.0
15/10:00pm 12.0 6.5 4.2 59 3.5 SW 22 28 12 15 1018.3 1018.0 0.0
15/09:30pm 13.2 6.8 5.1 58 3.8 SW 28 35 15 19 1017.8 1017.5 0.0
15/09:00pm 13.5 8.2 6.6 63 3.3 SW 24 32 13 17 1017.3 1017.0 0.0
15/08:30pm 14.6 8.5 6.7 59 3.9 SW 28 39 15 21 1016.8 1016.5 0.0
15/08:00pm 15.8 9.4 7.1 56 4.3 SW 30 39 16 21 1016.3 1016.0 0.0
15/07:30pm 16.5 10.3 6.3 51 5.0 WSW 28 37 15 20 1015.8 1015.5 0.0
15/07:00pm 17.2 10.1 6.4 49 5.3 SW 33 46 18 25 1015.3 1015.0 0.0
15/06:30pm 17.2 10.5 7.5 53 4.9 SW 32 44 17 24 1014.9 1014.5 0.0
15/06:00pm 17.9 11.4 6.7 48 5.6 WSW 30 43 16 23 1014.4 1014.0 0.0
15/05:30pm 18.4 11.7 7.5 49 5.6 WSW 32 41 17 22 1014.0 1013.6 0.0
15/05:00pm 17.6 11.2 9.5 59 4.3 W 33 48 18 26 1014.0 1013.6 0.0
15/04:30pm 19.0 12.6 8.4 50 5.5 WSW 32 44 17 24 1013.7 1013.3 0.0
15/04:00pm 18.3 11.8 8.3 52 5.2 WSW 32 39 17 21 1013.8 1013.4 0.0
15/03:31pm 18.8 12.6 7.9 49 5.6 WSW 30 50 16 27 1013.6 1013.2 0.0
15/03:30pm 19.2 13.3 7.6 47 6.0 WSW 28 43 15 23 1013.7 1013.3 0.0
15/03:00pm 18.3 12.2 8.3 52 5.2 WSW 30 41 16 22 1013.9 1013.5 0.0
15/02:30pm 18.4 12.3 8.1 51 5.3 W 30 41 16 22 1013.8 1013.4 0.0
15/02:00pm 18.1 12.2 7.5 50 5.4 W 28 39 15 21 1014.0 1013.6 0.0
15/01:30pm 16.8 11.1 6.9 52 4.9 W 26 39 14 21 1014.0 1013.6 0.0
15/01:00pm 17.0 11.1 7.6 54 4.8 W 28 37 15 20 1014.3 1013.9 0.0
15/12:30pm 15.5 10.5 8.0 61 3.8 W 24 33 13 18 1014.5 1014.1 0.0
15/12:00pm 14.2 8.9 9.8 75 2.3 W 28 39 15 21 1014.8 1014.4 0.0
15/11:30am 16.3 11.0 8.3 59 4.1 WSW 26 33 14 18 1014.8 1014.4 0.0
15/11:00am 15.0 8.7 7.3 60 3.8 WSW 30 43 16 23 1014.8 1014.4 0.0
15/10:30am 14.8 8.9 7.6 62 3.6 W 28 35 15 19 1014.6 1014.2 0.0
15/10:00am 13.5 7.7 7.9 69 2.8 WSW 28 35 15 19 1014.7 1014.3 0.0
15/09:30am 13.7 8.3 7.9 68 2.9 WSW 26 33 14 18 1014.5 1014.1 0.0
15/09:00am 12.7 7.4 8.6 76 2.1 W 26 37 14 20 1014.4 1014.0 0.0
15/08:30am 12.4 7.6 8.7 78 1.9 W 24 30 13 16 1014.2 1013.8 0.0
15/08:00am 11.6 7.4 9.9 89 0.9 WSW 22 28 12 15 1014.1 1013.7 0.0
15/07:30am 11.2 8.0 9.8 91 0.7 WSW 17 22 9 12 1013.8 1013.4 0.0
15/07:00am 11.0 7.7 9.4 90 0.8 WSW 17 26 9 14 1013.6 1013.2 0.0
15/06:30am 10.8 7.0 9.2 90 0.8 WSW 19 24 10 13 1013.3 1012.9 0.0
15/06:00am 10.7 6.8 9.3 91 0.7 W 20 24 11 13 1012.9 1012.6 0.0
15/05:30am 10.6 5.9 9.2 91 0.7 W 24 30 13 16 1012.8 1012.5 0.0
15/05:00am 10.5 7.1 9.3 92 0.6 W 17 20 9 11 1012.7 1012.4 0.0
15/04:30am 10.6 6.3 9.4 92 0.6 W 22 32 12 17 1012.9 1012.6 0.0
15/04:00am 10.7 6.3 9.0 89 0.8 W 22 30 12 16 1013.3 1012.9 0.0
15/03:30am 12.0 6.9 7.7 75 2.1 WSW 24 35 13 19 1013.2 1012.8 0.0
15/03:00am 12.4 8.2 7.5 72 2.4 W 19 24 10 13 1013.2 1012.8 0.0
15/02:30am 12.3 7.9 7.6 73 2.3 W 20 28 11 15 1013.3 1012.9 0.0
15/02:00am 12.4 7.6 7.5 72 2.4 W 22 32 12 17 1013.7 1013.3 0.0
15/01:30am 12.3 7.6 7.6 73 2.3 W 22 30 12 16 1014.1 1013.7 0.0
15/01:00am 12.4 8.4 8.1 75 2.1 W 19 30 10 16 1014.4 1014.0 0.0
15/12:30am 12.3 8.1 8.4 77 1.9 W 20 28 11 15 1014.8 1014.4 0.0
15/12:00am 12.5 7.1 7.8 73 2.3 W 26 39 14 21 1015.1 1014.8 0.0
 
Date/Time
EDT
Temp
°C
App
Temp
°C
Dew
Point
°C
Rel
Hum
%
Delta-T
°C
Wind Press
QNH
hPa
Press
MSL
hPa
Rain since
9am
mm
Dir  Spd
km/h
Gust
km/h
Spd
kts
Gust
kts
14/11:30pm 13.1 7.2 7.5 69 2.8 WSW 28 35 15 19 1015.3 1015.0 0.0
14/11:00pm 13.5 7.9 7.3 66 3.0 WSW 26 33 14 18 1015.6 1015.3 0.0
14/10:30pm 13.6 8.4 7.4 66 3.1 W 24 33 13 18 1015.8 1015.5 0.0
14/10:00pm 14.0 8.6 6.4 60 3.7 WSW 24 35 13 19 1015.8 1015.5 0.0
14/09:30pm 14.0 8.1 5.9 58 3.9 WSW 26 39 14 21 1015.7 1015.4 0.0
14/09:00pm 14.3 9.8 6.9 61 3.6 W 20 28 11 15 1015.6 1015.3 0.0
14/08:30pm 14.0 7.6 6.8 62 3.5 WSW 30 39 16 21 1015.6 1015.3 0.0
14/08:00pm 14.9 9.5 7.9 63 3.5 WSW 26 35 14 19 1015.6 1015.3 0.0
14/07:30pm 15.9 9.5 7.1 56 4.4 WSW 30 39 16 21 1015.4 1015.1 0.0
14/07:00pm 16.7 9.8 6.5 51 5.0 WSW 32 46 17 25 1015.3 1015.0 0.0
14/06:30pm 18.2 11.7 6.7 47 5.8 WSW 30 43 16 23 1015.1 1014.8 0.0
14/06:00pm 18.7 11.7 6.9 46 6.0 WSW 33 46 18 25 1014.9 1014.5 0.0
14/05:30pm 19.2 11.9 7.0 45 6.2 WSW 35 46 19 25 1014.9 1014.5 0.0
14/05:17pm 20.2 13.8 6.9 42 6.8 W 30 48 16 26 1014.8 1014.4 0.0
14/05:00pm 20.7 13.8 6.6 40 7.2 W 32 48 17 26 1014.7 1014.3 0.0
14/04:30pm 20.9 14.0 7.2 41 7.1 WSW 33 43 18 23 1014.6 1014.2 0.0
14/04:00pm 20.6 14.2 6.9 41 7.0 WSW 30 48 16 26 1014.9 1014.5 0.0
14/03:50pm 21.6 15.3 7.4 40 7.4 W 30 48 16 26 1015.0 1014.6 0.0
14/03:30pm 20.5 14.2 7.5 43 6.7 W 30 44 16 24 1015.2 1014.9 0.0
14/03:00pm 19.8 13.5 7.2 44 6.4 W 30 44 16 24 1015.6 1015.3 0.0
14/02:33pm 19.9 14.1 7.9 46 6.2 WSW 28 46 15 25 1016.0 1015.7 0.0
14/02:30pm 20.0 13.9 8.4 47 6.1 WSW 30 46 16 25 1016.0 1015.7 0.0
14/02:00pm 18.8 13.4 8.2 50 5.5 W 26 35 14 19 1016.5 1016.2 0.0
14/01:30pm 18.2 12.8 7.9 51 5.3 W 26 35 14 19 1016.9 1016.6 0.0
14/01:00pm 17.1 11.5 8.8 58 4.3 WNW 28 39 15 21 1017.3 1017.0 0.0
14/12:30pm 17.5 12.1 8.1 54 4.8 W 26 35 14 19 1017.8 1017.5 0.0
14/12:00pm 17.1 11.8 8.3 56 4.5 W 26 35 14 19 1018.1 1017.8 0.0
14/11:30am 16.3 11.3 8.0 58 4.2 W 24 39 13 21 1018.4 1018.1 0.0
14/11:00am 16.3 11.4 8.3 59 4.1 WSW 24 33 13 18 1018.6 1018.3 0.0
14/10:30am 15.0 10.1 8.5 65 3.3 W 24 33 13 18 1018.8 1018.5 0.0
14/10:00am 14.5 9.4 9.1 70 2.8 W 26 33 14 18 1018.8 1018.5 0.0
14/09:30am 13.9 9.5 8.9 72 2.5 WSW 22 30 12 16 1018.8 1018.5 0.0
14/09:00am 13.3 9.5 9.7 79 1.9 W 20 26 11 14 1018.8 1018.5 0.0
14/08:30am 12.0 7.2 9.0 82 1.5 WSW 24 32 13 17 1018.6 1018.3 0.0
14/08:00am 11.8 8.1 9.5 86 1.2 WSW 19 26 10 14 1018.5 1018.2 0.0
14/07:30am 11.1 7.2 9.5 90 0.8 W 20 26 11 14 1018.3 1018.0 0.0
14/07:00am 10.8 7.1 9.6 92 0.6 W 19 28 10 15 1018.0 1017.7 0.0
14/06:30am 10.6 7.3 9.5 93 0.6 W 17 22 9 12 1017.8 1017.5 0.0
14/06:00am 10.5 7.1 9.3 92 0.6 W 17 20 9 11 1017.7 1017.4 0.0
14/05:30am 10.6 6.9 9.4 92 0.6 W 19 22 10 12 1017.7 1017.4 0.0
14/05:00am 10.6 6.7 9.4 92 0.6 W 20 28 11 15 1017.7 1017.4 0.0
14/04:30am 10.0 7.3 8.8 92 0.6 W 13 22 7 12 1017.8 1017.5 0.0
14/04:00am 10.0 6.5 8.6 91 0.7 W 17 24 9 13 1017.8 1017.5 0.0
14/03:30am 10.4 6.9 8.8 90 0.8 W 17 20 9 11 1017.9 1017.6 0.0
14/03:00am 10.7 6.8 8.8 88 0.9 WSW 19 26 10 14 1018.4 1018.1 0.0
14/02:30am 11.3 7.3 8.3 82 1.5 W 19 30 10 16 1018.7 1018.4 0.0
14/02:00am 11.7 7.7 8.9 83 1.4 W 20 26 11 14 1018.9 1018.6 0.0
14/01:30am 11.7 7.7 8.9 83 1.4 WSW 20 26 11 14 1019.1 1018.8 0.0
14/01:00am 11.6 7.7 8.6 82 1.5 W 19 24 10 13 1019.3 1019.0 0.0
14/12:30am 11.3 7.7 8.3 82 1.5 W 17 20 9 11 1019.5 1019.2 0.0
14/12:00am 11.5 7.5 8.4 81 1.5 W 19 24 10 13 1019.5 1019.2 0.0
 
Date/Time
EDT
Temp
°C
App
Temp
°C
Dew
Point
°C
Rel
Hum
%
Delta-T
°C
Wind Press
QNH
hPa
Press
MSL
hPa
Rain since
9am
mm
Dir  Spd
km/h
Gust
km/h
Spd
kts
Gust
kts
13/11:30pm 11.8 7.6 8.3 79 1.7 W 20 26 11 14 1019.7 1019.4 0.0
13/11:00pm 12.1 7.9 8.2 77 1.9 W 20 28 11 15 1019.9 1019.6 0.0
13/10:30pm 12.6 8.0 8.3 75 2.1 WSW 22 37 12 20 1020.1 1019.8 0.0
13/10:00pm 12.9 8.3 8.0 72 2.4 W 22 32 12 17 1020.1 1019.8 0.0
13/09:30pm 13.5 8.7 7.5 67 3.0 WSW 22 30 12 16 1019.9 1019.6 0.0
13/09:00pm 13.5 7.3 7.7 68 2.9 WSW 30 43 16 23 1019.8 1019.5 0.0
13/08:30pm 13.8 8.8 8.2 69 2.8 WSW 24 35 13 19 1019.7 1019.4 0.0
13/08:00pm 14.5 10.1 8.9 69 2.9 WSW 22 28 12 15 1019.4 1019.1 0.0
13/07:30pm 13.8 10.0 9.8 77 2.1 WSW 20 30 11 16 1019.0 1018.7 0.0
13/07:00pm 14.3 10.5 9.7 74 2.4 W 20 28 11 15 1018.9 1018.6 0.0
13/06:30pm 14.9 9.6 8.6 66 3.2 W 26 35 14 19 1018.7 1018.4 0.0
13/06:00pm 15.5 8.8 8.3 62 3.7 WSW 33 46 18 25 1018.6 1018.3 0.0
13/05:30pm 15.5 8.0 7.8 60 3.9 WSW 37 46 20 25 1018.7 1018.4 0.0
13/05:00pm 16.1 8.8 7.3 56 4.4 W 35 44 19 24 1018.6 1018.3 0.0
13/04:30pm 16.1 8.9 7.8 58 4.2 W 35 48 19 26 1018.6 1018.3 0.0
13/04:00pm 16.5 9.3 7.7 56 4.4 WSW 35 50 19 27 1018.6 1018.3 0.0
13/03:51pm 16.3 10.3 7.0 54 4.6 W 28 50 15 27 1018.5 1018.2 0.0
13/03:30pm 16.5 10.2 7.2 54 4.7 WSW 30 37 16 20 1018.8 1018.5 0.0
13/03:00pm 17.1 10.7 6.9 51 5.1 WSW 30 41 16 22 1019.0 1018.7 0.0
13/02:30pm 16.7 10.5 6.2 50 5.2 WSW 28 39 15 21 1018.9 1018.6 0.0
13/02:00pm 16.1 9.4 5.7 50 5.0 W 30 39 16 21 1019.5 1019.2 0.0
13/01:30pm 15.3 8.2 5.5 52 4.7 WSW 32 43 17 23 1019.7 1019.4 0.0
13/01:00pm 14.8 7.7 5.3 53 4.5 WSW 32 43 17 23 1019.7 1019.4 0.0
13/12:30pm 15.3 9.2 4.7 49 5.0 WSW 26 35 14 19 1019.8 1019.5 0.0
13/12:00pm 15.2 8.6 4.3 48 5.1 WSW 28 39 15 21 1019.7 1019.4 0.0
13/11:40am 14.8 8.1 3.6 47 5.1 WSW 28 46 15 25 1020.0 1019.7 0.0
13/11:30am 14.6 7.9 3.7 48 5.0 SW 28 41 15 22 1020.0 1019.7 0.0
13/11:00am 14.6 7.1 3.7 48 5.0 SW 32 44 17 24 1020.1 1019.8 0.0
13/10:30am 13.8 6.6 3.0 48 4.9 WSW 30 41 16 22 1020.3 1020.0 0.0
13/10:00am 14.0 6.8 2.9 47 5.0 SW 30 41 16 22 1020.0 1019.7 0.0
13/09:30am 13.5 5.9 2.7 48 4.8 WSW 32 41 17 22 1019.8 1019.5 0.0
13/09:00am 12.2 5.1 3.4 55 3.9 WSW 30 39 16 21 1019.8 1019.5 0.0
13/08:51am 12.2 5.5 3.9 57 3.8 WSW 28 46 15 25 1019.6 1019.3 0.0
13/08:30am 11.5 6.5 4.5 62 3.2 W 20 28 11 15 1019.9 1019.6 0.0
13/08:00am 8.6 5.2 4.2 74 1.9 W 11 17 6 9 1019.6 1019.3 0.0
13/07:30am 6.9 3.9 3.9 81 1.3 W 9 13 5 7 1019.5 1019.2 0.0
13/07:00am 5.7 2.9 3.0 83 1.1 WNW 7 11 4 6 1019.0 1018.7 0.0
13/06:30am 5.2 1.5 2.6 83 1.1 W 11 13 6 7 1018.8 1018.5 0.0
13/06:00am 5.1 1.4 2.6 84 1.0 W 11 13 6 7 1018.7 1018.4 0.0
13/05:30am 5.5 2.3 3.0 84 1.0 WNW 9 13 5 7 1018.3 1018.0 0.0
13/05:00am 5.7 2.1 3.2 84 1.0 WNW 11 15 6 8 1018.2 1017.9 0.0
13/04:30am 6.4 2.2 3.7 83 1.2 WNW 15 19 8 10 1018.3 1018.0 0.0
13/04:00am 6.1 2.6 3.4 83 1.1 WNW 11 15 6 8 1018.5 1018.2 0.0
13/03:30am 6.0 2.4 3.0 81 1.3 WNW 11 13 6 7 1018.9 1018.6 0.0
13/03:00am 6.6 3.0 3.2 79 1.4 NW 11 13 6 7 1019.1 1018.8 0.0
13/02:30am 6.8 2.8 2.9 76 1.6 WNW 13 13 7 7 1019.2 1018.9 0.0
13/02:00am 7.6 3.7 3.6 76 1.7 W 13 17 7 9 1019.6 1019.3 0.0
13/01:30am 6.6 3.0 2.9 77 1.6 W 11 13 6 7 1019.8 1019.5 0.0
13/01:00am 7.0 3.8 2.9 75 1.7 WSW 9 11 5 6 1019.7 1019.4 0.0
13/12:30am 7.3 3.3 2.8 73 1.9 WSW 13 19 7 10 1020.0 1019.7 0.0
13/12:00am 7.5 3.8 2.4 70 2.1 WSW 11 13 6 7 1019.8 1019.5 0.0

Other formats

Comma delimited format used in spreadsheet applications
http://www.bom.gov.au/fwo/IDV60801/IDV60801.94827.axf

JavaScript Object Notation format (JSON) in row-major order
http://www.bom.gov.au/fwo/IDV60801/IDV60801.94827.json

Data quality

Most of these data are generated automatically and are frequently updated. Quality checks on data are not normally performed. It is possible for incorrect values to appear. Refer to information at About Latest Weather Observations and please check the disclaimer before using these data.